Time;durP1;ratioP1;P1;durP2;ratioP2;P2;SDS_P1;SDS_P2;PMS_P1;PMS_P2;Temp;Humidity;BMP_temperature;BMP_pressure;BME280_temperature;BME280_humidity;BME280_pressure;Samples;Min_cycle;Max_cycle;Signal;HPM_P1;HPM_P2
2023/09/20 00:01:53;;;;;;;8.10;4.93;;;16.70;99.90;;;;;;5034343;28;20483;-68
2023/09/20 00:04:22;;;;;;;8.40;4.32;;;16.60;99.90;;;;;;5035046;28;20060;-68
2023/09/20 00:06:48;;;;;;;8.85;4.80;;;16.70;99.90;;;;;;5034000;28;20064;-67
2023/09/20 00:09:15;;;;;;;8.65;4.65;;;16.60;99.90;;;;;;5034343;28;20045;-67
2023/09/20 00:11:43;;;;;;;8.55;5.60;;;16.60;99.90;;;;;;5034276;28;20049;-67
2023/09/20 00:14:09;;;;;;;9.82;4.70;;;16.60;99.90;;;;;;5034220;28;20045;-67
2023/09/20 00:16:34;;;;;;;7.68;4.10;;;16.60;99.90;;;;;;5034254;28;20050;-67
2023/09/20 00:19:00;;;;;;;5.90;4.40;;;16.60;99.90;;;;;;5033840;28;20488;-67
2023/09/20 00:21:26;;;;;;;11.73;5.85;;;16.50;99.90;;;;;;5034072;28;20503;-68
2023/09/20 00:23:51;;;;;;;9.45;5.57;;;16.60;99.90;;;;;;5032763;28;20051;-68
2023/09/20 00:26:20;;;;;;;7.18;5.07;;;16.60;99.90;;;;;;5034081;28;20053;-68
2023/09/20 00:28:49;;;;;;;10.57;5.40;;;16.60;99.90;;;;;;5033846;28;20137;-68
2023/09/20 00:31:15;;;;;;;7.93;5.38;;;16.60;99.90;;;;;;5032761;28;20124;-68
2023/09/20 00:33:42;;;;;;;10.55;6.30;;;16.70;99.90;;;;;;5033338;28;20171;-67
2023/09/20 00:36:08;;;;;;;11.20;5.88;;;16.70;99.90;;;;;;5033833;28;20088;-68
2023/09/20 00:38:34;;;;;;;9.52;5.13;;;16.70;99.90;;;;;;5033740;28;20049;-67
2023/09/20 00:41:05;;;;;;;7.35;5.15;;;16.70;99.90;;;;;;5033416;28;20378;-68
2023/09/20 00:43:31;;;;;;;8.82;4.78;;;16.70;99.90;;;;;;5033992;28;20049;-68
2023/09/20 00:45:59;;;;;;;7.72;4.95;;;16.80;99.90;;;;;;5033788;28;20064;-68
2023/09/20 00:48:26;;;;;;;8.20;5.13;;;16.80;99.90;;;;;;5033533;28;20103;-69
2023/09/20 00:50:51;;;;;;;6.82;4.82;;;16.80;99.90;;;;;;5034057;28;20536;-68
2023/09/20 00:53:17;;;;;;;11.65;5.00;;;16.80;99.90;;;;;;5016055;28;20045;-68
2023/09/20 00:55:43;;;;;;;11.63;5.15;;;16.80;99.90;;;;;;5033886;28;20382;-68
2023/09/20 00:58:19;;;;;;;9.10;4.55;;;16.80;99.90;;;;;;5033425;28;20049;-68
2023/09/20 01:00:46;;;;;;;10.50;4.47;;;16.90;99.90;;;;;;5033727;28;20054;-68
2023/09/20 01:03:18;;;;;;;7.38;4.22;;;16.80;99.90;;;;;;5033461;28;20045;-68
2023/09/20 01:05:47;;;;;;;9.77;4.15;;;16.90;99.90;;;;;;5033165;28;20046;-68
2023/09/20 01:08:16;;;;;;;7.75;5.38;;;16.90;99.90;;;;;;5033259;28;20103;-68
2023/09/20 01:10:42;;;;;;;11.50;4.93;;;16.80;99.90;;;;;;5033119;28;20081;-68
2023/09/20 01:13:21;;;;;;;7.63;4.68;;;16.80;99.90;;;;;;5033620;28;20053;-68
2023/09/20 01:15:48;;;;;;;8.68;4.95;;;16.90;99.90;;;;;;5033144;28;20045;-68
2023/09/20 01:18:13;;;;;;;7.80;5.10;;;16.80;99.90;;;;;;5033473;28;20120;-68
2023/09/20 01:20:40;;;;;;;7.55;4.70;;;16.80;99.90;;;;;;5033225;28;20137;-67
2023/09/20 01:27:56;;;;;;;5.70;4.63;;;16.80;99.90;;;;;;4971822;28;20061;-66
2023/09/20 01:30:28;;;;;;;9.20;4.63;;;16.80;99.90;;;;;;5026594;28;20054;-66
2023/09/20 01:32:58;;;;;;;6.22;4.72;;;16.80;99.90;;;;;;5032671;28;20393;-66
2023/09/20 01:35:27;;;;;;;13.73;5.15;;;16.80;99.90;;;;;;5031538;28;20049;-66
2023/09/20 01:37:53;;;;;;;8.05;4.57;;;16.80;99.90;;;;;;5032725;28;20041;-66
2023/09/20 01:40:23;;;;;;;7.35;3.60;;;16.80;99.90;;;;;;5032640;28;20041;-69
2023/09/20 01:42:49;;;;;;;7.28;4.13;;;16.90;99.90;;;;;;5032537;28;20049;-67
2023/09/20 01:45:18;;;;;;;6.00;3.80;;;16.90;99.90;;;;;;5014629;28;20128;-68
2023/09/20 01:47:49;;;;;;;11.02;4.53;;;16.90;99.90;;;;;;5032113;28;20053;-67
2023/09/20 01:50:20;;;;;;;6.03;3.63;;;16.90;99.90;;;;;;5032583;28;20041;-67
2023/09/20 01:52:48;;;;;;;8.25;4.60;;;16.90;99.90;;;;;;5031894;28;20370;-67
2023/09/20 01:55:16;;;;;;;8.82;4.00;;;16.90;99.90;;;;;;5032445;28;20088;-66
2023/09/20 01:57:46;;;;;;;6.63;3.88;;;17.00;99.90;;;;;;5031397;28;20092;-67
2023/09/20 02:00:22;;;;;;;7.00;4.40;;;17.00;99.90;;;;;;5032412;28;20045;-68
2023/09/20 02:02:56;;;;;;;5.40;4.18;;;16.90;99.90;;;;;;5032300;28;20091;-67
2023/09/20 02:05:26;;;;;;;7.00;4.35;;;17.00;99.90;;;;;;5032993;28;20050;-67
2023/09/20 02:07:54;;;;;;;9.32;4.18;;;17.00;99.90;;;;;;5032249;28;20037;-68
2023/09/20 02:10:21;;;;;;;6.78;4.13;;;17.00;99.90;;;;;;5032252;28;20459;-68
2023/09/20 02:12:48;;;;;;;10.20;5.00;;;17.10;99.90;;;;;;5032601;28;20111;-68
2023/09/20 02:15:15;;;;;;;8.23;4.05;;;17.10;99.90;;;;;;5032704;28;20041;-68
2023/09/20 02:17:41;;;;;;;6.32;4.22;;;17.10;99.90;;;;;;5032330;28;20049;-68
2023/09/20 02:20:09;;;;;;;5.22;4.03;;;17.10;99.90;;;;;;5033157;28;20061;-68
2023/09/20 02:22:36;;;;;;;5.18;4.15;;;17.10;99.90;;;;;;5033566;28;20049;-68
2023/09/20 02:25:10;;;;;;;9.10;4.78;;;17.10;99.90;;;;;;5033719;28;20053;-68
2023/09/20 02:27:36;;;;;;;8.20;3.72;;;17.10;99.90;;;;;;5032886;28;20081;-68
2023/09/20 02:30:03;;;;;;;9.80;4.90;;;17.10;99.90;;;;;;5032066;28;20104;-67
2023/09/20 02:32:31;;;;;;;7.78;4.13;;;17.10;99.90;;;;;;5032367;28;20104;-69
2023/09/20 02:34:57;;;;;;;9.13;3.80;;;17.10;99.90;;;;;;5031120;28;20131;-68
2023/09/20 02:37:23;;;;;;;10.73;4.50;;;17.10;99.90;;;;;;5032475;28;20046;-67
2023/09/20 02:39:48;;;;;;;10.10;4.03;;;17.10;99.90;;;;;;5031747;28;20056;-68
2023/09/20 02:42:14;;;;;;;8.60;4.15;;;17.20;99.90;;;;;;5032253;28;20045;-67
2023/09/20 02:44:40;;;;;;;8.65;4.03;;;17.20;99.90;;;;;;5031983;28;20466;-68
2023/09/20 02:47:07;;;;;;;7.75;3.58;;;17.20;99.90;;;;;;5031570;28;20051;-67
2023/09/20 02:49:33;;;;;;;8.55;4.20;;;17.20;99.90;;;;;;5031569;28;20061;-67
2023/09/20 02:51:58;;;;;;;5.40;3.50;;;17.20;99.90;;;;;;5031927;28;20042;-68
2023/09/20 02:54:25;;;;;;;6.88;3.88;;;17.20;99.90;;;;;;5032081;28;20507;-67
2023/09/20 02:56:52;;;;;;;5.22;3.28;;;17.30;99.90;;;;;;5032083;28;20146;-67
2023/09/20 02:59:20;;;;;;;6.15;3.90;;;17.30;99.90;;;;;;5034575;28;20443;-67
2023/09/20 03:01:49;;;;;;;5.38;3.72;;;17.30;99.90;;;;;;5035931;28;20119;-67
2023/09/20 03:04:15;;;;;;;8.20;3.90;;;17.20;99.90;;;;;;5035652;28;20578;-67
2023/09/20 03:06:44;;;;;;;9.57;4.22;;;17.20;99.90;;;;;;5035828;28;20055;-67
2023/09/20 03:09:10;;;;;;;7.32;3.78;;;17.20;99.90;;;;;;5035501;28;20053;-67
2023/09/20 03:11:37;;;;;;;6.43;4.20;;;17.20;99.90;;;;;;5035421;28;20072;-67
2023/09/20 03:14:10;;;;;;;9.35;4.40;;;17.20;99.90;;;;;;5035625;28;20099;-68
2023/09/20 03:16:36;;;;;;;9.48;3.90;;;17.30;99.90;;;;;;5034724;28;20057;-68
2023/09/20 03:19:02;;;;;;;9.57;4.00;;;17.20;99.90;;;;;;5035084;28;20042;-68
2023/09/20 03:21:28;;;;;;;5.72;3.60;;;17.20;99.90;;;;;;5035703;28;20049;-67
2023/09/20 03:23:55;;;;;;;7.63;3.50;;;17.30;99.90;;;;;;5034487;28;20057;-68
2023/09/20 03:26:21;;;;;;;9.30;3.58;;;17.20;99.90;;;;;;5035677;28;20133;-67
2023/09/20 03:28:48;;;;;;;8.52;3.95;;;17.30;99.90;;;;;;5035115;28;20072;-68
2023/09/20 03:31:15;;;;;;;6.75;4.47;;;17.30;99.90;;;;;;5035704;28;20050;-67
2023/09/20 03:33:42;;;;;;;5.97;4.10;;;17.20;99.90;;;;;;5035343;28;20050;-67
2023/09/20 03:36:15;;;;;;;6.03;3.60;;;17.20;99.90;;;;;;5034801;28;20437;-66
2023/09/20 03:38:41;;;;;;;;;;;17.30;99.90;;;;;;5034368;28;20061;-67
2023/09/20 03:41:07;;;;;;;8.32;4.28;;;17.20;99.90;;;;;;5034047;28;19971;-67
2023/09/20 03:43:33;;;;;;;4.05;3.50;;;17.20;99.90;;;;;;5034310;28;20057;-67
2023/09/20 03:46:01;;;;;;;8.25;4.07;;;17.20;99.90;;;;;;5017399;28;20091;-68
2023/09/20 03:48:27;;;;;;;5.95;4.00;;;17.20;99.90;;;;;;5034677;28;20489;-68
2023/09/20 03:50:53;;;;;;;10.02;4.20;;;17.20;99.90;;;;;;5034729;28;20042;-68
2023/09/20 03:53:18;;;;;;;8.80;4.35;;;17.30;99.90;;;;;;5033750;28;20062;-67
2023/09/20 03:55:46;;;;;;;10.43;4.43;;;17.30;99.90;;;;;;5034605;28;20056;-67
2023/09/20 03:58:11;;;;;;;9.57;3.83;;;17.30;99.90;;;;;;5034139;28;20397;-67
2023/09/20 04:00:38;;;;;;;9.25;3.63;;;17.30;99.90;;;;;;5034446;28;20038;-68
2023/09/20 04:03:05;;;;;;;8.90;3.97;;;17.30;99.90;;;;;;5033999;28;20561;-67
2023/09/20 04:05:33;;;;;;;5.38;4.25;;;17.30;99.90;;;;;;5034366;28;20493;-67
2023/09/20 04:08:00;;;;;;;7.55;4.20;;;17.30;99.90;;;;;;5034369;28;20046;-68
2023/09/20 04:10:26;;;;;;;9.27;4.88;;;17.30;99.90;;;;;;5033445;28;20084;-68
2023/09/20 04:12:52;;;;;;;4.78;4.05;;;17.30;99.90;;;;;;5034256;28;20050;-67
2023/09/20 04:15:18;;;;;;;12.02;4.63;;;17.30;99.90;;;;;;5034408;28;20049;-68
2023/09/20 04:17:44;;;;;;;9.40;4.32;;;17.30;99.90;;;;;;5034186;28;20049;-68
2023/09/20 04:20:11;;;;;;;10.43;5.15;;;17.30;99.90;;;;;;5033619;28;20065;-68
2023/09/20 04:22:41;;;;;;;7.00;4.05;;;17.30;99.90;;;;;;5034161;28;20121;-67
2023/09/20 04:25:10;;;;;;;7.43;3.63;;;17.30;99.90;;;;;;5032939;28;20127;-67
2023/09/20 04:27:36;;;;;;;10.65;4.22;;;17.20;99.90;;;;;;5034372;28;20103;-67
2023/09/20 04:30:01;;;;;;;15.60;4.43;;;17.10;99.90;;;;;;5034522;28;20049;-68
2023/09/20 04:32:27;;;;;;;9.30;3.97;;;17.10;99.90;;;;;;5033905;28;20409;-67
2023/09/20 04:34:53;;;;;;;5.63;3.95;;;17.00;99.90;;;;;;5033498;28;20104;-68
2023/09/20 04:37:20;;;;;;;6.38;3.90;;;17.00;99.90;;;;;;5033813;28;20049;-67
2023/09/20 04:39:47;;;;;;;7.50;4.03;;;16.90;99.90;;;;;;5032691;28;20056;-67
2023/09/20 04:42:13;;;;;;;7.15;4.15;;;16.80;99.90;;;;;;5033792;28;20046;-68
2023/09/20 04:44:39;;;;;;;11.82;4.47;;;16.80;99.90;;;;;;5034100;28;20472;-67
2023/09/20 04:47:05;;;;;;;8.95;5.05;;;16.70;99.90;;;;;;5034278;28;20041;-67
2023/09/20 04:49:30;;;;;;;7.03;3.83;;;16.70;99.90;;;;;;5033977;28;20456;-67
2023/09/20 04:52:00;;;;;;;6.05;3.80;;;16.60;99.90;;;;;;5033506;28;20095;-68
2023/09/20 04:54:26;;;;;;;10.75;4.03;;;16.60;99.90;;;;;;5032901;28;20049;-67
2023/09/20 04:56:53;;;;;;;7.40;4.05;;;16.50;99.90;;;;;;5033209;28;20544;-67
2023/09/20 04:59:19;;;;;;;6.63;3.75;;;16.50;99.90;;;;;;5032126;28;20049;-67
2023/09/20 05:01:45;;;;;;;9.50;3.60;;;16.50;99.90;;;;;;5015972;28;20042;-67
2023/09/20 05:04:13;;;;;;;7.60;4.25;;;16.40;99.90;;;;;;5033340;28;20123;-67
2023/09/20 05:06:42;;;;;;;8.60;4.20;;;16.40;99.90;;;;;;5034051;28;20111;-68
2023/09/20 05:09:09;;;;;;;6.53;3.97;;;16.40;99.90;;;;;;5033166;28;20103;-67
2023/09/20 05:11:35;;;;;;;7.57;3.35;;;16.40;99.90;;;;;;5033146;28;20049;-67
2023/09/20 05:14:00;;;;;;;7.63;3.97;;;16.40;99.90;;;;;;5031853;28;20121;-67
2023/09/20 05:16:26;;;;;;;5.63;3.78;;;16.30;99.90;;;;;;5015882;28;20522;-67
2023/09/20 05:18:52;;;;;;;6.57;3.97;;;16.30;99.90;;;;;;5032841;28;20059;-68
2023/09/20 05:21:18;;;;;;;8.40;3.53;;;16.30;99.90;;;;;;5032966;28;20053;-67
2023/09/20 05:23:44;;;;;;;8.95;4.50;;;16.40;99.90;;;;;;5033384;28;20506;-68
2023/09/20 05:26:10;;;;;;;9.52;3.97;;;16.30;99.90;;;;;;5032242;28;20065;-67
2023/09/20 05:28:36;;;;;;;8.43;3.42;;;16.40;99.90;;;;;;5031770;28;20478;-67
2023/09/20 05:31:05;;;;;;;6.88;3.65;;;16.40;99.90;;;;;;5033104;28;20099;-67
2023/09/20 05:33:32;;;;;;;5.93;4.00;;;16.40;99.90;;;;;;5033124;28;20076;-68
2023/09/20 05:35:58;;;;;;;6.00;3.80;;;16.30;99.90;;;;;;5032680;28;20049;-67
2023/09/20 05:38:27;;;;;;;7.53;4.10;;;16.40;99.90;;;;;;5032810;28;20519;-67
2023/09/20 05:40:53;;;;;;;6.78;4.45;;;16.40;99.90;;;;;;5015614;28;20417;-67
2023/09/20 05:43:19;;;;;;;7.25;3.90;;;16.40;99.90;;;;;;5032567;28;20057;-68
2023/09/20 05:45:45;;;;;;;6.60;4.63;;;16.40;99.90;;;;;;5032705;28;20042;-68
2023/09/20 05:48:12;;;;;;;12.10;3.42;;;16.50;99.90;;;;;;5032959;28;20124;-67
2023/09/20 05:50:40;;;;;;;6.68;3.55;;;16.60;99.90;;;;;;5032645;28;20151;-67
2023/09/20 05:53:10;;;;;;;7.82;3.75;;;16.60;99.90;;;;;;5032435;28;20105;-68
2023/09/20 05:55:38;;;;;;;8.52;3.80;;;16.70;99.90;;;;;;5032696;28;20053;-71
2023/09/20 05:58:03;;;;;;;5.78;3.80;;;16.70;99.90;;;;;;5032479;28;20071;-71
2023/09/20 06:00:30;;;;;;;7.38;3.55;;;16.70;99.90;;;;;;5031069;28;20490;-71
2023/09/20 06:02:59;;;;;;;6.20;3.45;;;16.70;99.90;;;;;;5015337;28;20049;-71
2023/09/20 06:05:25;;;;;;;14.15;4.15;;;16.70;99.90;;;;;;5032820;28;20114;-71
2023/09/20 06:07:55;;;;;;;6.97;4.15;;;16.70;99.90;;;;;;5033179;28;20049;-71
2023/09/20 06:10:22;;;;;;;5.97;3.97;;;16.70;99.90;;;;;;5032337;28;20053;-71
2023/09/20 06:12:50;;;;;;;5.63;3.42;;;16.70;99.90;;;;;;5032583;28;20427;-71
2023/09/20 06:15:16;;;;;;;7.15;3.67;;;16.70;99.90;;;;;;5032425;28;20394;-71
2023/09/20 06:17:43;;;;;;;4.78;3.15;;;16.70;99.90;;;;;;5031028;28;20052;-71
2023/09/20 06:20:12;;;;;;;4.38;3.75;;;16.70;99.90;;;;;;5030618;28;20061;-71
2023/09/20 06:22:42;;;;;;;8.52;3.35;;;16.70;99.90;;;;;;5032800;28;20052;-70
2023/09/20 06:25:08;;;;;;;7.50;3.55;;;16.70;99.90;;;;;;5032218;28;20079;-71
2023/09/20 06:27:34;;;;;;;5.60;3.17;;;16.70;99.90;;;;;;5030975;28;20041;-71
2023/09/20 06:30:05;;;;;;;5.22;3.10;;;16.60;99.90;;;;;;5031955;28;20045;-71
2023/09/20 06:32:33;;;;;;;4.53;3.08;;;16.60;99.90;;;;;;5033385;28;20037;-70
2023/09/20 06:35:03;;;;;;;4.90;3.47;;;16.60;99.90;;;;;;5034750;28;20050;-71
2023/09/20 06:37:29;;;;;;;4.72;3.20;;;16.60;99.90;;;;;;5036172;28;20056;-71
2023/09/20 06:39:56;;;;;;;4.43;3.53;;;16.60;99.90;;;;;;5035873;28;20045;-71
2023/09/20 06:42:22;;;;;;;6.30;3.30;;;16.60;99.90;;;;;;5035534;28;20120;-71
2023/09/20 06:44:49;;;;;;;5.57;3.35;;;16.60;99.90;;;;;;5035571;28;20148;-71
2023/09/20 06:47:17;;;;;;;5.28;2.97;;;16.70;99.90;;;;;;5034412;28;20515;-70
2023/09/20 06:49:43;;;;;;;7.60;3.50;;;16.70;99.90;;;;;;5034591;28;20114;-70
2023/09/20 06:52:08;;;;;;;6.68;3.55;;;16.70;99.90;;;;;;5035913;28;20452;-71
2023/09/20 06:54:36;;;;;;;8.38;3.60;;;16.80;99.90;;;;;;5036155;28;20049;-70
2023/09/20 06:57:05;;;;;;;7.40;2.97;;;16.90;99.90;;;;;;5035603;28;20052;-71
2023/09/20 06:59:31;;;;;;;8.05;3.10;;;17.00;99.90;;;;;;5034811;28;20128;-70
2023/09/20 07:01:59;;;;;;;6.95;3.70;;;17.10;99.90;;;;;;5035174;28;20045;-70
2023/09/20 07:04:25;;;;;;;6.18;3.33;;;17.20;99.90;;;;;;5035421;28;20480;-71
2023/09/20 07:06:55;;;;;;;6.80;2.95;;;17.30;99.90;;;;;;5035238;28;20041;-71
2023/09/20 07:09:21;;;;;;;8.23;3.78;;;17.30;99.90;;;;;;5035135;28;20092;-71
2023/09/20 07:11:48;;;;;;;5.60;3.45;;;17.40;99.90;;;;;;5035572;28;20049;-71
2023/09/20 07:14:20;;;;;;;6.75;3.45;;;17.40;99.90;;;;;;5035144;28;20136;-71
2023/09/20 07:16:48;;;;;;;9.65;3.70;;;17.30;99.90;;;;;;5034855;28;20506;-70
2023/09/20 07:19:17;;;;;;;6.75;3.13;;;17.30;99.90;;;;;;5035143;28;20431;-71
2023/09/20 07:21:46;;;;;;;6.55;3.08;;;17.30;99.90;;;;;;5035030;28;20550;-70
2023/09/20 07:24:12;;;;;;;4.95;3.30;;;17.30;99.90;;;;;;5033823;28;20489;-71
2023/09/20 07:26:45;;;;;;;3.53;3.17;;;17.40;99.90;;;;;;5034070;28;20053;-70
2023/09/20 07:29:14;;;;;;;5.22;3.45;;;17.40;99.90;;;;;;5034983;28;20076;-71
2023/09/20 07:31:40;;;;;;;7.65;4.15;;;17.40;99.90;;;;;;5034959;28;20136;-71
2023/09/20 07:34:06;;;;;;;4.47;3.33;;;17.50;99.90;;;;;;5033902;28;20045;-70
2023/09/20 07:36:40;;;;;;;6.57;3.10;;;17.60;99.90;;;;;;5034758;28;20077;-70
2023/09/20 07:39:12;;;;;;;6.18;2.95;;;18.10;99.90;;;;;;5035172;28;20053;-70
2023/09/20 07:41:47;;;;;;;3.58;2.88;;;19.00;99.90;;;;;;5034932;28;20075;-70
2023/09/20 07:44:13;;;;;;;7.63;3.25;;;19.80;99.90;;;;;;5033142;28;20050;-70
2023/09/20 07:46:41;;;;;;;6.63;3.47;;;20.20;99.90;;;;;;5034588;28;20125;-70
2023/09/20 07:49:09;;;;;;;3.28;2.83;;;20.30;99.90;;;;;;5033841;28;20125;-70
2023/09/20 07:51:39;;;;;;;7.30;3.60;;;20.70;99.90;;;;;;5016958;28;20103;-70
2023/09/20 07:54:09;;;;;;;6.43;3.17;;;21.50;99.90;;;;;;5034896;28;20048;-70
2023/09/20 07:56:39;;;;;;;7.00;3.67;;;21.70;99.90;;;;;;5034418;28;20045;-70
2023/09/20 07:59:04;;;;;;;4.07;3.05;;;21.40;99.90;;;;;;5034012;28;20128;-70
2023/09/20 08:01:33;;;;;;;5.00;3.47;;;21.00;99.90;;;;;;5033406;28;20502;-70
2023/09/20 08:03:59;;;;;;;4.88;3.20;;;20.40;99.90;;;;;;5034428;28;20057;-70
2023/09/20 08:06:33;;;;;;;7.55;3.33;;;19.80;99.90;;;;;;5034461;28;20041;-71
2023/09/20 08:09:00;;;;;;;7.85;3.42;;;19.30;99.90;;;;;;5034057;28;20049;-71
2023/09/20 08:11:29;;;;;;;6.60;3.58;;;19.10;99.90;;;;;;5034340;28;20048;-69
2023/09/20 08:13:56;;;;;;;5.82;3.30;;;19.10;99.90;;;;;;5033179;28;20041;-70
2023/09/20 08:16:24;;;;;;;5.82;3.08;;;18.90;99.90;;;;;;5034183;28;20045;-70
2023/09/20 08:19:03;;;;;;;6.78;3.60;;;18.80;99.90;;;;;;5034303;28;20054;-70
2023/09/20 08:21:32;;;;;;;7.50;2.83;;;18.70;99.90;;;;;;5034281;28;20057;-70
2023/09/20 09:00:49;;;;;;;7.40;3.15;;;19.10;99.90;;;;;;5033117;28;20492;-70
2023/09/20 09:03:06;;;;;;;7.22;3.38;;;19.00;99.90;;;;;;5032410;28;20049;-71
2023/09/20 09:05:32;;;;;;;6.03;3.50;;;19.10;99.90;;;;;;5033691;28;20049;-71
2023/09/20 09:08:00;;;;;;;5.75;3.80;;;19.20;99.90;;;;;;5032043;28;20164;-72
2023/09/20 09:10:26;;;;;;;7.43;3.65;;;19.10;99.90;;;;;;5033797;28;20052;-70
2023/09/20 09:12:52;;;;;;;6.43;4.25;;;19.10;99.90;;;;;;5033150;28;20072;-70
2023/09/20 09:15:18;;;;;;;7.47;3.50;;;19.10;99.90;;;;;;5033117;28;20053;-70
2023/09/20 09:17:48;;;;;;;4.78;3.90;;;19.10;99.90;;;;;;5033066;28;20048;-70
2023/09/20 09:20:16;;;;;;;5.18;3.00;;;19.10;99.90;;;;;;5031904;28;20054;-70
2023/09/20 09:22:43;;;;;;;6.35;3.95;;;19.10;99.90;;;;;;5033055;28;20050;-70
2023/09/20 09:25:17;;;;;;;5.65;3.15;;;19.20;99.90;;;;;;5033027;28;20495;-70
2023/09/20 09:27:43;;;;;;;5.97;2.88;;;19.20;99.90;;;;;;5032211;28;20049;-70
2023/09/20 09:30:14;;;;;;;4.55;3.20;;;19.20;99.90;;;;;;5033250;28;20477;-70
2023/09/20 09:32:42;;;;;;;4.40;2.92;;;19.20;99.90;;;;;;5031765;28;20038;-70
2023/09/20 09:35:09;;;;;;;4.72;2.80;;;19.30;99.90;;;;;;5032890;28;20056;-70
2023/09/20 09:37:36;;;;;;;6.78;2.95;;;19.30;99.90;;;;;;5032806;28;20088;-71
2023/09/20 09:40:05;;;;;;;6.43;3.42;;;19.30;99.90;;;;;;5033422;28;20052;-71
2023/09/20 09:42:31;;;;;;;7.32;3.30;;;19.30;99.90;;;;;;5031596;28;20132;-70
2023/09/20 09:44:58;;;;;;;5.90;3.72;;;19.40;99.90;;;;;;5034146;28;20451;-70
2023/09/20 09:47:25;;;;;;;3.90;3.50;;;19.50;99.90;;;;;;5034419;28;20053;-70
2023/09/20 09:49:53;;;;;;;4.45;3.03;;;19.50;99.90;;;;;;5034548;28;20049;-70
2023/09/20 09:52:23;;;;;;;5.82;3.50;;;19.50;99.90;;;;;;5033430;28;20493;-70
2023/09/20 09:54:50;;;;;;;6.80;3.53;;;19.60;99.90;;;;;;5032664;28;20072;-70
2023/09/20 09:57:18;;;;;;;3.35;2.78;;;19.60;99.90;;;;;;5032576;28;20046;-69
2023/09/20 09:59:46;;;;;;;3.67;2.90;;;19.60;99.90;;;;;;5032555;28;20037;-69
2023/09/20 10:02:19;;;;;;;5.25;3.17;;;19.80;99.90;;;;;;5031424;28;20127;-69
2023/09/20 10:05:02;;;;;;;6.53;3.38;;;19.90;99.90;;;;;;5032143;28;20120;-69
2023/09/20 10:07:49;;;;;;;4.90;3.17;;;20.10;99.90;;;;;;5030524;28;20136;-70
2023/09/20 10:10:16;;;;;;;6.63;3.20;;;20.20;99.90;;;;;;5032047;28;20175;-69
2023/09/20 10:12:47;;;;;;;5.28;2.92;;;20.40;99.90;;;;;;5032376;28;20049;-69
2023/09/20 10:15:14;;;;;;;3.63;2.85;;;20.40;99.90;;;;;;5032075;28;20042;-69
2023/09/20 10:17:59;;;;;;;4.38;3.05;;;20.30;99.90;;;;;;5031190;28;20054;-69
2023/09/20 10:21:04;;;;;;;3.17;2.40;;;20.30;99.90;;;;;;5032582;28;20058;-69
2023/09/20 10:23:34;;;;;;;3.92;2.45;;;20.20;99.90;;;;;;5032848;28;20099;-69
2023/09/20 10:26:00;;;;;;;3.03;2.65;;;20.20;99.90;;;;;;5032347;28;20446;-69
2023/09/20 10:28:31;;;;;;;3.63;2.63;;;20.20;99.90;;;;;;5032327;28;20037;-69
2023/09/20 10:31:04;;;;;;;6.80;4.20;;;20.30;99.90;;;;;;5031279;28;20053;-69
2023/09/20 10:33:45;;;;;;;4.85;2.65;;;20.20;99.90;;;;;;5032702;28;20228;-69
2023/09/20 10:36:27;;;;;;;3.60;3.05;;;20.10;99.90;;;;;;5032232;28;20054;-69
2023/09/20 10:39:20;;;;;;;2.90;2.40;;;20.10;99.90;;;;;;5032486;28;20050;-69
2023/09/20 10:41:50;;;;;;;5.90;2.47;;;20.10;99.90;;;;;;5032649;28;20053;-69
2023/09/20 10:44:31;;;;;;;4.03;2.22;;;20.10;99.90;;;;;;5032536;28;20041;-69
2023/09/20 10:47:01;;;;;;;4.25;2.85;;;20.10;99.90;;;;;;5032142;28;20088;-69
2023/09/20 10:49:48;;;;;;;4.28;2.22;;;20.10;99.90;;;;;;5032102;28;20056;-69
2023/09/20 10:52:37;;;;;;;3.97;2.53;;;20.20;99.90;;;;;;5032686;28;20045;-69
2023/09/20 10:55:15;;;;;;;9.35;2.58;;;20.20;99.90;;;;;;5032154;28;20049;-69
2023/09/20 10:57:43;;;;;;;3.40;2.13;;;20.20;99.90;;;;;;5031907;28;20088;-69
2023/09/20 11:00:11;;;;;;;5.82;2.70;;;20.10;99.90;;;;;;5032048;28;20056;-70
2023/09/20 11:02:38;;;;;;;3.25;2.45;;;20.10;99.90;;;;;;5032010;28;20116;-69
2023/09/20 11:05:07;;;;;;;2.70;2.22;;;20.10;99.90;;;;;;5031911;28;20095;-69
2023/09/20 11:07:33;;;;;;;4.82;2.38;;;20.00;99.90;;;;;;5031928;28;20486;-69
2023/09/20 11:09:59;;;;;;;3.95;2.10;;;20.00;99.90;;;;;;5031508;28;20068;-69
2023/09/20 11:12:25;;;;;;;3.92;2.55;;;20.00;99.90;;;;;;5031817;28;20065;-70
2023/09/20 11:14:51;;;;;;;3.58;2.33;;;20.00;99.90;;;;;;5031823;28;20045;-70
2023/09/20 11:17:18;;;;;;;4.40;2.47;;;19.90;99.90;;;;;;5031009;28;20064;-69
2023/09/20 11:19:45;;;;;;;2.33;2.13;;;19.80;99.90;;;;;;5035395;28;20081;-70
2023/09/20 11:22:13;;;;;;;4.10;2.20;;;19.80;99.90;;;;;;5035255;28;20097;-69
2023/09/20 11:24:41;;;;;;;2.25;1.80;;;19.80;99.90;;;;;;5035222;28;20528;-70
2023/09/20 11:27:08;;;;;;;2.35;1.58;;;19.80;99.90;;;;;;5035222;28;20068;-70
2023/09/20 11:29:40;;;;;;;3.38;2.20;;;19.80;99.90;;;;;;5034104;28;20080;-69
2023/09/20 11:32:11;;;;;;;3.58;2.60;;;19.80;99.90;;;;;;5035210;28;20050;-70
2023/09/20 11:34:44;;;;;;;2.17;1.98;;;19.90;99.90;;;;;;5018496;28;20127;-70
2023/09/20 11:37:11;;;;;;;3.10;1.80;;;19.90;99.90;;;;;;5035436;28;20057;-70
2023/09/20 11:39:42;;;;;;;4.60;2.30;;;20.00;99.90;;;;;;5035610;28;20056;-70
2023/09/20 11:42:07;;;;;;;3.70;2.17;;;20.10;99.90;;;;;;5034354;28;20054;-70
2023/09/20 11:44:35;;;;;;;4.15;2.38;;;20.20;99.90;;;;;;5034397;28;20428;-69
2023/09/20 11:47:01;;;;;;;3.70;2.13;;;20.40;99.90;;;;;;5034886;28;20049;-70
2023/09/20 11:49:29;;;;;;;2.40;2.00;;;20.50;99.90;;;;;;5034826;28;20124;-69
2023/09/20 11:51:59;;;;;;;3.72;2.38;;;20.50;99.90;;;;;;5034804;28;20041;-70
2023/09/20 11:54:28;;;;;;;3.63;2.35;;;20.50;99.90;;;;;;5034566;28;20046;-70
2023/09/20 11:56:59;;;;;;;6.32;2.13;;;20.50;99.90;;;;;;5034647;28;20046;-70
2023/09/20 11:59:25;;;;;;;2.33;2.10;;;20.50;99.90;;;;;;5034721;28;20375;-70
2023/09/20 12:01:50;;;;;;;3.13;2.05;;;20.60;99.90;;;;;;5033260;28;20056;-71
2023/09/20 12:04:17;;;;;;;3.42;2.38;;;20.70;99.90;;;;;;5033278;28;20088;-70
2023/09/20 12:06:42;;;;;;;6.95;3.05;;;20.70;99.90;;;;;;5034592;28;20041;-71
2023/09/20 12:09:09;;;;;;;4.13;2.42;;;20.80;99.90;;;;;;5033110;28;20064;-70
2023/09/20 12:11:35;;;;;;;4.03;2.53;;;21.00;99.90;;;;;;5001419;28;20111;-70
2023/09/20 12:14:02;;;;;;;2.75;2.50;;;21.00;99.90;;;;;;5032957;28;20474;-70
2023/09/20 12:16:28;;;;;;;3.35;2.30;;;21.20;99.90;;;;;;5034271;28;20049;-70
2023/09/20 12:18:58;;;;;;;4.85;2.97;;;21.20;99.90;;;;;;5034402;28;20434;-70
2023/09/20 12:21:25;;;;;;;5.68;2.63;;;21.30;99.90;;;;;;5033416;28;20464;-70
2023/09/20 12:23:51;;;;;;;2.83;2.47;;;21.50;99.90;;;;;;5034157;28;20053;-70
2023/09/20 12:26:17;;;;;;;4.82;3.00;;;21.60;99.90;;;;;;5034447;28;20045;-72
2023/09/20 12:28:44;;;;;;;6.35;2.80;;;21.60;99.90;;;;;;5033757;28;20041;-70
2023/09/20 12:31:10;;;;;;;4.22;2.20;;;21.50;99.90;;;;;;5033027;28;20542;-70
2023/09/20 12:33:36;;;;;;;5.07;2.90;;;21.50;99.90;;;;;;5034224;28;20049;-70
2023/09/20 12:36:04;;;;;;;5.07;3.83;;;21.60;99.90;;;;;;5016625;28;20407;-70
2023/09/20 12:38:30;;;;;;;4.47;2.60;;;21.80;99.90;;;;;;5032808;28;20049;-70
2023/09/20 12:40:57;;;;;;;3.50;2.83;;;21.80;99.90;;;;;;5033863;28;20037;-70
2023/09/20 12:43:22;;;;;;;4.05;2.72;;;21.80;99.90;;;;;;5033688;28;20076;-70
2023/09/20 12:45:48;;;;;;;4.00;2.88;;;21.90;99.90;;;;;;5033682;28;20491;-70
2023/09/20 12:48:14;;;;;;;4.25;3.03;;;22.00;99.90;;;;;;5033527;28;20052;-70
2023/09/20 12:50:41;;;;;;;4.25;2.90;;;22.10;99.90;;;;;;5032824;28;20056;-70
2023/09/20 12:53:08;;;;;;;4.55;2.90;;;22.20;99.90;;;;;;5033071;28;20087;-70
2023/09/20 12:55:37;;;;;;;5.55;3.08;;;22.20;99.90;;;;;;5033375;28;20128;-70
2023/09/20 12:58:04;;;;;;;5.95;3.35;;;22.10;99.90;;;;;;5033257;28;20045;-70
2023/09/20 13:00:31;;;;;;;3.90;3.22;;;22.00;99.90;;;;;;5033316;28;20056;-70
2023/09/20 13:02:59;;;;;;;4.35;2.67;;;22.00;99.90;;;;;;5033213;28;20045;-70
2023/09/20 13:05:25;;;;;;;4.28;3.00;;;22.20;99.90;;;;;;5033345;28;20517;-71
2023/09/20 13:07:51;;;;;;;3.60;3.30;;;22.30;99.90;;;;;;5033254;28;20092;-69
2023/09/20 13:10:19;;;;;;;4.57;3.30;;;22.30;99.90;;;;;;5033243;28;20057;-70
2023/09/20 13:12:47;;;;;;;4.03;2.95;;;22.20;99.90;;;;;;5033035;28;20081;-70
2023/09/20 13:15:14;;;;;;;4.47;2.97;;;22.00;99.90;;;;;;5033048;28;20046;-67
2023/09/20 13:17:44;;;;;;;8.32;3.42;;;21.90;99.90;;;;;;5032098;28;20056;-69
2023/09/20 13:20:14;;;;;;;4.15;3.30;;;21.90;99.90;;;;;;5033392;28;20068;-70
2023/09/20 13:22:45;;;;;;;5.57;2.88;;;21.80;99.90;;;;;;5032557;28;20049;-70
2023/09/20 13:25:14;;;;;;;3.40;3.05;;;21.70;99.90;;;;;;5034770;28;20053;-69
2023/09/20 13:27:40;;;;;;;4.28;3.35;;;21.80;99.90;;;;;;5034482;28;20038;-70
2023/09/20 13:30:13;;;;;;;2.97;2.65;;;21.80;99.90;;;;;;5034105;28;20056;-70
2023/09/20 13:32:39;;;;;;;8.43;3.00;;;21.90;99.90;;;;;;5032757;28;20041;-70